Time;durP1;ratioP1;P1;durP2;ratioP2;P2;SDS_P1;SDS_P2;PMS_P1;PMS_P2;Temp;Humidity;BMP_temperature;BMP_pressure;BME280_temperature;BME280_humidity;BME280_pressure;Samples;Min_cycle;Max_cycle;Signal;HPM_P1;HPM_P2
2022/06/12 00:01:02;;;;;;;6.32;1.92;;;15.60;99.90;;;;;;5069355;28;20129;-46
2022/06/12 00:03:28;;;;;;;8.23;2.15;;;15.60;99.90;;;;;;5069131;28;20036;-47
2022/06/12 00:05:57;;;;;;;7.38;1.90;;;15.60;99.90;;;;;;5069084;28;20404;-46
2022/06/12 00:08:23;;;;;;;8.32;2.58;;;15.50;99.90;;;;;;5069126;28;20375;-46
2022/06/12 00:10:51;;;;;;;7.43;1.80;;;15.60;99.90;;;;;;5069341;28;20037;-45
2022/06/12 00:13:29;;;;;;;8.38;2.20;;;15.50;99.90;;;;;;5069554;28;20492;-45
2022/06/12 00:15:56;;;;;;;6.78;2.50;;;15.50;99.90;;;;;;5068910;28;20043;-46
2022/06/12 00:18:23;;;;;;;6.93;1.60;;;15.50;99.90;;;;;;5072962;28;20041;-45
2022/06/12 00:21:10;;;;;;;7.78;2.17;;;15.50;99.90;;;;;;5072793;28;20032;-45
2022/06/12 00:23:35;;;;;;;7.57;2.50;;;15.40;99.90;;;;;;5072414;28;20146;-46
2022/06/12 00:26:01;;;;;;;8.02;2.00;;;15.30;99.90;;;;;;5071061;28;20164;-47
2022/06/12 00:28:26;;;;;;;7.50;2.20;;;15.30;99.90;;;;;;5072724;28;20102;-44
2022/06/12 00:30:52;;;;;;;6.78;2.03;;;15.20;99.90;;;;;;5072424;28;20456;-47
2022/06/12 00:33:17;;;;;;;7.25;2.30;;;15.20;99.90;;;;;;5055021;28;20088;-46
2022/06/12 00:35:43;;;;;;;7.00;2.20;;;15.20;99.90;;;;;;5071771;28;20413;-44
2022/06/12 00:38:09;;;;;;;5.65;2.00;;;15.10;99.90;;;;;;5072698;28;20047;-45
2022/06/12 00:40:35;;;;;;;7.30;1.92;;;15.10;99.90;;;;;;5072235;28;20041;-47
2022/06/12 00:43:02;;;;;;;11.50;2.30;;;15.00;99.90;;;;;;5072223;28;20047;-46
2022/06/12 00:45:55;;;;;;;10.48;2.30;;;14.90;99.90;;;;;;5072511;28;20044;-47
2022/06/12 00:48:23;;;;;;;9.38;2.20;;;14.90;99.90;;;;;;5050094;28;20080;-46
2022/06/12 00:50:58;;;;;;;6.40;2.20;;;14.80;99.90;;;;;;5072215;28;20032;-48
2022/06/12 00:53:35;;;;;;;6.50;2.35;;;14.70;99.90;;;;;;5071965;28;20120;-46
2022/06/12 00:56:00;;;;;;;8.70;2.45;;;14.70;99.90;;;;;;5072154;28;20513;-45
2022/06/12 00:58:30;;;;;;;7.25;2.17;;;14.70;99.90;;;;;;5072071;28;20127;-47
2022/06/12 01:00:56;;;;;;;7.20;2.22;;;14.70;99.90;;;;;;5069703;28;20043;-48
2022/06/12 01:03:23;;;;;;;6.15;2.05;;;14.70;99.90;;;;;;5071966;28;20598;-46
2022/06/12 01:08:35;;;;;;;8.45;2.33;;;14.70;99.90;;;;;;5072144;28;20075;-45
2022/06/12 01:11:04;;;;;;;7.78;2.20;;;14.70;99.90;;;;;;5071570;28;20087;-48
2022/06/12 01:13:35;;;;;;;7.50;2.38;;;14.60;99.90;;;;;;5071965;28;20404;-45
2022/06/12 01:16:06;;;;;;;9.00;2.22;;;14.70;99.90;;;;;;5053741;28;20119;-46
2022/06/12 01:18:37;;;;;;;7.25;2.35;;;14.60;99.90;;;;;;5071862;28;20024;-47
2022/06/12 01:21:34;;;;;;;7.28;2.15;;;14.60;99.90;;;;;;5071763;28;20115;-48
2022/06/12 01:24:14;;;;;;;7.68;2.33;;;14.60;99.90;;;;;;5071958;28;20052;-47
2022/06/12 01:26:49;;;;;;;7.95;2.70;;;14.50;99.90;;;;;;5071944;28;20372;-46
2022/06/12 01:29:41;;;;;;;10.65;3.28;;;14.40;99.90;;;;;;5070432;28;20024;-45
2022/06/12 01:32:16;;;;;;;8.10;2.97;;;14.40;99.90;;;;;;5070730;28;20392;-45
2022/06/12 01:35:07;;;;;;;8.35;3.10;;;14.40;99.90;;;;;;5071298;28;20063;-48
2022/06/12 01:37:52;;;;;;;10.00;3.13;;;14.30;99.90;;;;;;5071457;28;20086;-47
2022/06/12 01:40:39;;;;;;;10.10;3.40;;;14.30;99.90;;;;;;5071014;28;20071;-48
2022/06/12 01:43:30;;;;;;;7.40;2.38;;;14.30;99.90;;;;;;5071024;28;20072;-44
2022/06/12 01:46:01;;;;;;;9.85;2.95;;;14.20;99.90;;;;;;5066019;28;20048;-47
2022/06/12 01:48:30;;;;;;;9.07;2.70;;;14.20;99.90;;;;;;5070944;28;20090;-48
2022/06/12 01:51:05;;;;;;;10.52;2.80;;;14.20;99.90;;;;;;5052977;28;20140;-47
2022/06/12 01:53:50;;;;;;;8.85;2.80;;;14.20;99.90;;;;;;5071234;28;20036;-45
2022/06/12 01:56:55;;;;;;;9.45;2.75;;;14.10;99.90;;;;;;5052689;28;20139;-46
2022/06/12 01:59:38;;;;;;;10.90;3.25;;;14.10;99.90;;;;;;5070762;28;20040;-47
2022/06/12 02:02:16;;;;;;;10.75;2.80;;;14.10;99.90;;;;;;5071182;28;20502;-44
2022/06/12 02:04:56;;;;;;;11.48;3.08;;;14.10;99.90;;;;;;5070724;28;20411;-45
2022/06/12 02:07:40;;;;;;;7.28;2.85;;;14.00;99.90;;;;;;5070266;28;20041;-45
2022/06/12 02:10:30;;;;;;;7.93;2.50;;;13.90;99.90;;;;;;5070547;28;20118;-47
2022/06/12 02:13:14;;;;;;;7.28;2.70;;;13.80;99.90;;;;;;5070829;28;20040;-46
2022/06/12 02:16:12;;;;;;;9.32;2.90;;;13.70;99.90;;;;;;5070718;28;20476;-44
2022/06/12 02:18:55;;;;;;;9.52;2.60;;;13.60;99.90;;;;;;5065420;28;20084;-46
2022/06/12 02:21:37;;;;;;;7.93;2.58;;;13.50;99.90;;;;;;5069755;28;20506;-47
2022/06/12 02:24:29;;;;;;;7.32;2.55;;;13.50;99.90;;;;;;5070522;28;20075;-45
2022/06/12 02:27:13;;;;;;;7.13;2.35;;;13.40;99.90;;;;;;5070492;28;20552;-45
2022/06/12 02:29:56;;;;;;;12.07;2.95;;;13.30;99.90;;;;;;5070373;28;20047;-45
2022/06/12 02:32:25;;;;;;;10.07;3.35;;;13.40;99.90;;;;;;5070070;28;20044;-48
2022/06/12 02:35:21;;;;;;;9.23;2.80;;;13.30;99.90;;;;;;5070278;28;20082;-44
2022/06/12 02:37:52;;;;;;;9.30;2.90;;;13.30;99.90;;;;;;5069264;28;20048;-46
2022/06/12 02:40:32;;;;;;;7.15;2.67;;;13.30;99.90;;;;;;5069640;28;20468;-45
2022/06/12 02:43:01;;;;;;;9.18;3.10;;;13.20;99.90;;;;;;5070251;28;20119;-48
2022/06/12 02:45:41;;;;;;;11.18;3.15;;;13.10;99.90;;;;;;5070376;28;20040;-44
2022/06/12 02:48:07;;;;;;;9.30;2.80;;;13.10;99.90;;;;;;5069672;28;20044;-47
2022/06/12 02:50:56;;;;;;;11.20;2.85;;;13.00;99.90;;;;;;5070213;28;20048;-47
2022/06/12 02:53:58;;;;;;;9.13;2.38;;;12.90;99.90;;;;;;5023084;28;20044;-46
2022/06/12 02:56:45;;;;;;;9.20;2.88;;;12.90;99.90;;;;;;5052184;28;20040;-48
2022/06/12 02:59:35;;;;;;;8.93;2.47;;;12.90;99.90;;;;;;5070112;28;20380;-45
2022/06/12 03:02:21;;;;;;;11.40;2.67;;;12.90;99.90;;;;;;5070162;28;20064;-44
2022/06/12 03:04:52;;;;;;;11.88;3.40;;;12.90;99.90;;;;;;5070162;28;20387;-45
2022/06/12 03:07:18;;;;;;;7.85;2.28;;;12.80;99.90;;;;;;5069115;28;20052;-47
2022/06/12 03:09:44;;;;;;;7.28;2.60;;;12.80;99.90;;;;;;5069814;28;20041;-43
2022/06/12 03:12:11;;;;;;;6.85;2.30;;;12.70;99.90;;;;;;5070058;28;20106;-45
2022/06/12 03:14:36;;;;;;;10.43;2.10;;;12.80;99.90;;;;;;5069693;28;20387;-43
2022/06/12 03:17:02;;;;;;;12.10;2.40;;;12.70;99.90;;;;;;5051637;28;20047;-45
2022/06/12 03:19:42;;;;;;;6.78;2.50;;;12.80;99.90;;;;;;5069637;28;20536;-44
2022/06/12 03:22:26;;;;;;;8.07;2.25;;;12.80;99.90;;;;;;5069181;28;20052;-48
2022/06/12 03:25:04;;;;;;;12.15;2.33;;;12.80;99.90;;;;;;5069559;28;20048;-44
2022/06/12 03:27:40;;;;;;;12.50;2.72;;;12.70;99.90;;;;;;5069871;28;20430;-44
2022/06/12 03:30:09;;;;;;;10.32;2.03;;;12.70;99.90;;;;;;5069771;28;20103;-49
2022/06/12 03:32:47;;;;;;;12.23;2.47;;;12.70;99.90;;;;;;5069850;28;20086;-44
2022/06/12 03:35:34;;;;;;;12.27;2.22;;;12.70;99.90;;;;;;5051850;28;20048;-44
2022/06/12 03:38:04;;;;;;;9.80;2.63;;;12.70;99.90;;;;;;5051480;28;20045;-45
2022/06/12 03:41:03;;;;;;;13.38;3.45;;;12.60;99.90;;;;;;5051152;28;20059;-47
2022/06/12 03:43:41;;;;;;;10.20;2.40;;;12.60;99.90;;;;;;5068598;28;20472;-43
2022/06/12 03:46:15;;;;;;;9.48;2.65;;;12.60;99.90;;;;;;5069411;28;20063;-46
2022/06/12 03:48:49;;;;;;;10.93;2.40;;;12.70;99.90;;;;;;5069338;28;20047;-48
2022/06/12 03:51:32;;;;;;;11.05;2.53;;;12.70;99.90;;;;;;5069926;28;20036;-45
2022/06/12 03:54:04;;;;;;;8.38;2.15;;;12.70;99.90;;;;;;5073484;28;20097;-47
2022/06/12 03:59:26;;;;;;;7.93;2.35;;;12.70;99.90;;;;;;5073162;28;20399;-48
2022/06/12 04:01:53;;;;;;;;;;;12.70;99.90;;;;;;5055435;28;20041;-45
2022/06/12 04:04:21;;;;;;;7.70;2.40;;;12.70;99.90;;;;;;5073025;28;19924;-46
2022/06/12 04:06:48;;;;;;;9.60;2.65;;;12.70;99.90;;;;;;5072019;28;20380;-46
2022/06/12 04:09:23;;;;;;;8.35;2.20;;;12.70;99.90;;;;;;5054657;28;20036;-46
2022/06/12 04:11:57;;;;;;;10.32;2.58;;;12.70;99.90;;;;;;5071679;28;20472;-46
2022/06/12 04:14:29;;;;;;;7.85;2.22;;;12.60;99.90;;;;;;5073078;28;20089;-48
2022/06/12 04:16:59;;;;;;;12.55;2.60;;;12.70;99.90;;;;;;5073040;28;20043;-47
2022/06/12 04:19:27;;;;;;;11.45;2.58;;;12.70;99.90;;;;;;5055085;28;20072;-44
2022/06/12 04:22:04;;;;;;;13.00;3.22;;;12.80;99.90;;;;;;5072771;28;20072;-49
2022/06/12 04:24:29;;;;;;;10.10;2.30;;;12.80;99.90;;;;;;5072835;28;20059;-47
2022/06/12 04:27:04;;;;;;;7.00;2.10;;;12.90;99.90;;;;;;5071203;28;20090;-46
2022/06/12 04:29:36;;;;;;;9.30;2.28;;;12.90;99.90;;;;;;5072765;28;20040;-48
2022/06/12 04:32:05;;;;;;;10.10;2.75;;;12.80;99.90;;;;;;5072708;28;20068;-45
2022/06/12 04:34:36;;;;;;;11.43;3.08;;;12.90;99.90;;;;;;5072319;28;20045;-45
2022/06/12 04:37:13;;;;;;;9.60;2.40;;;12.90;99.90;;;;;;5072017;28;20123;-44
2022/06/12 04:39:39;;;;;;;13.15;3.15;;;12.90;99.90;;;;;;5072476;28;20476;-45
2022/06/12 04:42:06;;;;;;;8.07;2.63;;;13.00;99.90;;;;;;5072052;28;20039;-44
2022/06/12 04:44:31;;;;;;;9.45;3.05;;;13.00;99.90;;;;;;5072460;28;20036;-44
2022/06/12 04:47:00;;;;;;;9.05;2.63;;;13.10;99.90;;;;;;5072128;28;20036;-45
2022/06/12 04:49:28;;;;;;;11.05;2.90;;;13.20;99.90;;;;;;5072328;28;20044;-45
2022/06/12 04:51:56;;;;;;;12.85;2.85;;;13.20;99.90;;;;;;5072098;28;20037;-45
2022/06/12 04:54:24;;;;;;;11.95;3.05;;;13.20;99.90;;;;;;5071953;28;20467;-45
2022/06/12 04:56:50;;;;;;;10.63;2.65;;;13.20;99.90;;;;;;5053995;28;20051;-47
2022/06/12 04:59:17;;;;;;;12.15;2.65;;;13.20;99.90;;;;;;5072201;28;20048;-45
2022/06/12 05:01:45;;;;;;;16.25;3.50;;;13.30;99.90;;;;;;5072273;28;20040;-45
2022/06/12 05:04:12;;;;;;;12.88;3.58;;;13.30;99.90;;;;;;5071553;28;20041;-47
2022/06/12 05:06:39;;;;;;;11.55;3.00;;;13.40;99.90;;;;;;5071299;28;20131;-45
2022/06/12 05:09:06;;;;;;;12.88;3.50;;;13.50;99.90;;;;;;5071901;28;20041;-47
2022/06/12 05:11:32;;;;;;;10.25;3.08;;;13.50;99.90;;;;;;5071953;28;20545;-47
2022/06/12 05:13:58;;;;;;;12.88;3.17;;;13.50;99.90;;;;;;5053079;28;20044;-45
2022/06/12 05:16:27;;;;;;;13.23;3.17;;;13.60;99.90;;;;;;5071877;28;20043;-44
2022/06/12 05:18:52;;;;;;;15.40;3.10;;;13.70;99.90;;;;;;5071512;28;20067;-45
2022/06/12 05:21:18;;;;;;;12.02;3.47;;;13.90;99.90;;;;;;5053630;28;20080;-44
2022/06/12 05:23:44;;;;;;;15.15;3.35;;;14.00;99.90;;;;;;5071344;28;20499;-47
2022/06/12 05:26:14;;;;;;;13.77;3.42;;;14.20;99.90;;;;;;5071111;28;20085;-47
2022/06/12 05:28:40;;;;;;;11.15;3.17;;;14.20;99.90;;;;;;5071411;28;20040;-46
2022/06/12 05:31:06;;;;;;;19.08;3.88;;;14.30;99.90;;;;;;5071058;28;20033;-44
2022/06/12 05:33:31;;;;;;;11.20;3.45;;;14.30;99.90;;;;;;5053608;28;20033;-44
2022/06/12 05:35:57;;;;;;;13.68;3.13;;;14.40;99.90;;;;;;5052225;28;20093;-44
2022/06/12 05:38:24;;;;;;;14.70;3.20;;;14.50;99.90;;;;;;5071458;28;20372;-47
2022/06/12 05:40:49;;;;;;;15.35;3.92;;;14.40;99.90;;;;;;5071468;28;20040;-45
2022/06/12 05:43:16;;;;;;;14.95;3.35;;;14.40;99.90;;;;;;5071196;28;20051;-47
2022/06/12 05:45:42;;;;;;;13.77;3.15;;;14.60;99.90;;;;;;5071074;28;20040;-48
2022/06/12 05:48:11;;;;;;;22.50;4.35;;;14.60;99.90;;;;;;5070911;28;20068;-45
2022/06/12 05:50:50;;;;;;;15.35;4.22;;;14.60;99.90;;;;;;5070937;28;20047;-44
2022/06/12 05:53:16;;;;;;;18.10;3.60;;;14.70;99.90;;;;;;5053350;28;20410;-47
2022/06/12 05:55:42;;;;;;;13.73;3.78;;;14.80;99.90;;;;;;5070837;28;20041;-48
2022/06/12 05:58:08;;;;;;;15.05;4.20;;;14.80;99.90;;;;;;5070957;28;20120;-44
2022/06/12 06:00:34;;;;;;;17.55;4.57;;;14.70;99.90;;;;;;5070046;28;20119;-46
2022/06/12 06:03:00;;;;;;;19.40;4.30;;;14.70;99.90;;;;;;5070876;28;20044;-46
2022/06/12 06:05:26;;;;;;;10.70;3.72;;;14.80;99.90;;;;;;5069173;28;20036;-44
2022/06/12 06:07:52;;;;;;;15.57;4.07;;;14.80;99.90;;;;;;5070662;28;20037;-47
2022/06/12 06:10:22;;;;;;;14.50;4.28;;;14.80;99.90;;;;;;5070308;28;20043;-46
2022/06/12 06:12:48;;;;;;;17.30;4.50;;;14.80;99.90;;;;;;5071140;28;20129;-45
2022/06/12 06:15:14;;;;;;;17.42;4.25;;;14.90;99.90;;;;;;5052018;28;20127;-45
2022/06/12 06:17:40;;;;;;;20.33;5.18;;;14.90;99.90;;;;;;5052755;28;20047;-45
2022/06/12 06:20:07;;;;;;;18.05;3.80;;;14.80;99.90;;;;;;5070438;28;20093;-46
2022/06/12 06:22:33;;;;;;;14.95;4.22;;;14.80;99.90;;;;;;5070207;28;20159;-44
2022/06/12 06:24:59;;;;;;;15.27;4.80;;;14.80;99.90;;;;;;5068993;28;20111;-46
2022/06/12 06:27:25;;;;;;;19.13;4.35;;;14.90;99.90;;;;;;5070365;28;20045;-47
2022/06/12 06:29:51;;;;;;;17.27;4.90;;;14.80;99.90;;;;;;5070287;28;20072;-46
2022/06/12 06:32:17;;;;;;;18.45;4.47;;;15.20;99.90;;;;;;5052308;28;20036;-45
2022/06/12 06:34:42;;;;;;;15.35;4.65;;;15.30;99.90;;;;;;5070187;28;20069;-47
2022/06/12 06:37:10;;;;;;;14.70;4.40;;;15.30;99.90;;;;;;5069938;28;20040;-48
2022/06/12 06:39:38;;;;;;;17.98;4.60;;;15.30;99.90;;;;;;5070310;28;20043;-47
2022/06/12 06:42:06;;;;;;;23.77;5.03;;;15.40;99.90;;;;;;5052058;28;20041;-45
2022/06/12 06:47:17;;;;;;;23.98;4.85;;;15.70;99.90;;;;;;5069790;28;20101;-45
2022/06/12 06:49:43;;;;;;;19.98;4.95;;;15.70;99.90;;;;;;5070341;28;20029;-45
2022/06/12 06:52:08;;;;;;;18.02;4.65;;;15.90;99.90;;;;;;5069563;28;20037;-47
2022/06/12 06:54:34;;;;;;;19.02;5.30;;;16.00;99.90;;;;;;5070283;28;20047;-47
2022/06/12 06:57:01;;;;;;;22.20;4.80;;;16.10;99.90;;;;;;5069964;28;20052;-44
2022/06/12 06:59:27;;;;;;;22.38;5.13;;;16.30;99.90;;;;;;5069852;28;20051;-48
2022/06/12 07:01:53;;;;;;;21.80;5.25;;;16.30;99.90;;;;;;5069966;28;20052;-44
2022/06/12 07:04:19;;;;;;;23.50;6.57;;;16.30;99.90;;;;;;5068596;28;20040;-47
2022/06/12 07:06:45;;;;;;;22.45;5.57;;;16.40;99.90;;;;;;5069685;28;20048;-47
2022/06/12 07:09:11;;;;;;;17.95;4.90;;;16.50;99.90;;;;;;5069832;28;20514;-46
2022/06/12 07:11:36;;;;;;;21.95;5.22;;;16.50;99.90;;;;;;5069852;28;20115;-46
2022/06/12 07:14:02;;;;;;;18.80;4.85;;;16.70;99.90;;;;;;5069994;28;20039;-46
2022/06/12 07:16:30;;;;;;;19.52;4.78;;;16.70;99.90;;;;;;5069680;28;20072;-49
2022/06/12 07:18:55;;;;;;;19.35;4.63;;;16.70;99.90;;;;;;5069924;28;20028;-44
2022/06/12 07:21:22;;;;;;;25.27;4.95;;;16.70;99.90;;;;;;5051911;28;20107;-49
2022/06/12 07:23:48;;;;;;;16.02;4.78;;;16.70;99.90;;;;;;5069459;28;20080;-47
2022/06/12 07:26:19;;;;;;;22.08;4.75;;;16.70;99.90;;;;;;5071686;28;20060;-45
2022/06/12 07:28:45;;;;;;;26.98;5.03;;;16.80;99.90;;;;;;5054233;28;20040;-44
2022/06/12 07:31:11;;;;;;;20.25;4.10;;;16.90;99.90;;;;;;5073406;28;20040;-47
2022/06/12 07:33:39;;;;;;;17.35;4.68;;;17.10;99.90;;;;;;5055713;28;20055;-46
2022/06/12 07:36:08;;;;;;;16.63;4.55;;;17.10;99.90;;;;;;5073457;28;20036;-45
2022/06/12 07:38:36;;;;;;;23.13;4.50;;;17.20;99.90;;;;;;5073714;28;20475;-49
2022/06/12 07:41:03;;;;;;;17.40;3.95;;;17.20;99.90;;;;;;5073303;28;20036;-47
2022/06/12 07:43:35;;;;;;;17.70;4.18;;;17.40;99.90;;;;;;5073681;28;20040;-45
2022/06/12 07:46:06;;;;;;;23.77;4.63;;;17.30;99.90;;;;;;5073574;28;20090;-49
2022/06/12 07:48:32;;;;;;;17.38;4.82;;;17.40;99.90;;;;;;5073438;28;20127;-45
2022/06/12 07:51:00;;;;;;;20.75;4.82;;;17.50;99.90;;;;;;5073703;28;20104;-49
2022/06/12 07:53:26;;;;;;;16.88;3.92;;;17.70;99.90;;;;;;5073262;28;20119;-48
2022/06/12 07:55:53;;;;;;;17.45;3.50;;;17.70;99.90;;;;;;5055403;28;20111;-45
2022/06/12 07:58:23;;;;;;;16.10;4.13;;;17.80;99.90;;;;;;5072984;28;20042;-45
2022/06/12 08:00:49;;;;;;;12.45;3.40;;;17.80;99.90;;;;;;5073452;28;20434;-47
2022/06/12 08:03:15;;;;;;;19.80;4.68;;;18.00;99.90;;;;;;5073040;28;20048;-49
2022/06/12 08:05:41;;;;;;;19.05;4.05;;;18.10;99.90;;;;;;5072652;28;20490;-50
2022/06/12 08:08:07;;;;;;;20.88;4.00;;;18.10;99.90;;;;;;5055014;28;20040;-45
2022/06/12 08:10:33;;;;;;;17.42;3.83;;;18.20;99.90;;;;;;5055253;28;20480;-47
2022/06/12 08:13:03;;;;;;;14.38;3.80;;;18.20;99.90;;;;;;5072807;28;20049;-46
2022/06/12 08:15:29;;;;;;;19.33;4.07;;;18.30;99.90;;;;;;5073077;28;20121;-46
2022/06/12 08:17:57;;;;;;;15.40;3.30;;;18.30;99.90;;;;;;5072964;28;20045;-47
2022/06/12 08:20:30;;;;;;;18.95;3.55;;;18.40;99.90;;;;;;5072709;28;20048;-47
2022/06/12 08:23:05;;;;;;;15.32;3.60;;;18.40;99.90;;;;;;5072457;28;20419;-45
2022/06/12 08:25:36;;;;;;;14.82;3.50;;;18.50;99.90;;;;;;5072581;28;20036;-47
2022/06/12 08:28:03;;;;;;;13.45;3.55;;;18.50;99.90;;;;;;5072783;28;20072;-46
2022/06/12 08:30:29;;;;;;;17.02;3.60;;;18.40;99.90;;;;;;5072334;28;20044;-46
2022/06/12 08:32:56;;;;;;;16.05;3.20;;;18.40;99.90;;;;;;5072907;28;20040;-46
2022/06/12 08:35:27;;;;;;;15.88;3.20;;;18.60;99.90;;;;;;5072598;28;20068;-46
2022/06/12 08:37:54;;;;;;;14.73;3.13;;;18.60;99.90;;;;;;5053217;28;20052;-46
2022/06/12 08:41:08;;;;;;;12.80;3.75;;;18.70;99.90;;;;;;5072621;28;20044;-47
2022/06/12 08:43:54;;;;;;;9.32;2.50;;;18.80;99.90;;;;;;5072674;28;20161;-46
2022/06/12 08:46:30;;;;;;;10.65;2.63;;;18.90;99.90;;;;;;5070773;28;20476;-45
2022/06/12 08:49:18;;;;;;;10.65;2.75;;;19.00;99.90;;;;;;5072797;28;20178;-47
2022/06/12 08:52:06;;;;;;;13.23;2.60;;;19.00;99.90;;;;;;5072409;28;20033;-48
2022/06/12 08:54:46;;;;;;;9.38;2.33;;;19.00;99.90;;;;;;5053737;28;20040;-47
2022/06/12 08:57:21;;;;;;;12.50;2.80;;;19.20;99.90;;;;;;5072217;28;20059;-45
2022/06/12 08:59:57;;;;;;;10.40;2.42;;;19.30;99.90;;;;;;5072188;28;20422;-46
2022/06/12 09:02:36;;;;;;;11.32;2.58;;;19.30;99.90;;;;;;5072386;28;20584;-46
2022/06/12 09:05:05;;;;;;;12.25;2.60;;;19.50;99.90;;;;;;5054223;28;20072;-45
2022/06/12 09:07:52;;;;;;;12.98;3.00;;;19.60;99.90;;;;;;5071333;28;20054;-47
2022/06/12 09:10:28;;;;;;;11.45;2.50;;;20.00;99.90;;;;;;5071252;28;20043;-48
2022/06/12 09:13:01;;;;;;;10.55;2.50;;;20.20;99.90;;;;;;5071775;28;20479;-46
2022/06/12 09:16:03;;;;;;;10.07;2.30;;;20.30;99.90;;;;;;5071986;28;20033;-45
2022/06/12 09:18:59;;;;;;;8.80;2.05;;;20.30;99.90;;;;;;5071814;28;20364;-45
2022/06/12 09:21:29;;;;;;;10.82;2.45;;;20.50;99.90;;;;;;5072121;28;20051;-48
2022/06/12 09:24:29;;;;;;;12.93;2.53;;;20.50;99.90;;;;;;5071280;28;20052;-46
2022/06/12 09:26:54;;;;;;;7.75;2.00;;;20.30;99.90;;;;;;5071562;28;20041;-47
2022/06/12 09:29:46;;;;;;;12.63;2.20;;;20.70;99.90;;;;;;5053467;28;20040;-47
2022/06/12 09:32:42;;;;;;;10.98;2.30;;;20.60;99.90;;;;;;5057617;28;20052;-49
2022/06/12 09:35:34;;;;;;;11.88;2.42;;;21.00;99.90;;;;;;5071517;28;20045;-46
2022/06/12 09:38:21;;;;;;;11.07;2.50;;;21.00;99.90;;;;;;5071254;28;20060;-45
2022/06/12 09:40:47;;;;;;;8.95;2.00;;;20.80;99.90;;;;;;5071436;28;20040;-46
2022/06/12 09:43:31;;;;;;;9.18;2.45;;;21.10;99.90;;;;;;5071172;28;20044;-48
2022/06/12 09:46:02;;;;;;;;;;;21.00;99.90;;;;;;5071568;28;20411;-47
2022/06/12 09:48:44;;;;;;;6.82;1.95;;;21.00;99.90;;;;;;5071014;28;19927;-47
2022/06/12 09:51:24;;;;;;;6.00;1.90;;;21.10;99.90;;;;;;5070548;28;20072;-45
2022/06/12 09:54:46;;;;;;;7.32;1.98;;;21.20;99.90;;;;;;5071266;28;20032;-50
2022/06/12 09:57:32;;;;;;;7.68;2.00;;;21.40;99.90;;;;;;4969811;28;20046;-50
2022/06/12 10:00:11;;;;;;;8.45;2.08;;;21.60;99.90;;;;;;4969622;28;20039;-48
2022/06/12 10:03:00;;;;;;;8.38;2.22;;;21.60;99.90;;;;;;5051664;28;20052;-46
2022/06/12 10:05:41;;;;;;;5.65;1.40;;;21.40;99.90;;;;;;5070982;28;20396;-49
2022/06/12 10:08:31;;;;;;;9.60;2.25;;;21.70;99.90;;;;;;5070615;28;20549;-47
2022/06/12 10:11:24;;;;;;;7.45;1.80;;;21.30;99.90;;;;;;5070901;28;20036;-47
2022/06/12 10:14:21;;;;;;;10.90;2.10;;;21.60;99.90;;;;;;5070614;28;20039;-49
2022/06/12 10:17:03;;;;;;;7.13;1.80;;;21.00;99.90;;;;;;5047703;28;20052;-46
2022/06/12 10:19:44;;;;;;;7.70;1.73;;;21.20;99.90;;;;;;5070421;28;20029;-47
2022/06/12 10:22:19;;;;;;;8.85;2.00;;;21.20;99.90;;;;;;5070457;28;20052;-46
2022/06/12 10:24:45;;;;;;;9.18;1.95;;;21.20;99.90;;;;;;5071005;28;20052;-47
2022/06/12 10:27:14;;;;;;;9.65;1.73;;;21.20;99.90;;;;;;5070386;28;20040;-49
2022/06/12 10:29:50;;;;;;;7.13;1.60;;;21.20;99.90;;;;;;5069999;28;20044;-46
2022/06/12 10:32:27;;;;;;;8.38;2.10;;;20.90;99.90;;;;;;5070485;28;20086;-46
2022/06/12 10:35:04;;;;;;;6.57;1.80;;;21.10;99.90;;;;;;5070195;28;20621;-46
2022/06/12 10:37:29;;;;;;;7.45;1.63;;;21.10;99.90;;;;;;5052314;28;20045;-46
2022/06/12 10:40:21;;;;;;;8.65;1.70;;;21.30;99.90;;;;;;5070491;28;20040;-47
2022/06/12 10:42:58;;;;;;;4.80;1.85;;;21.40;99.90;;;;;;5070569;28;20044;-46
2022/06/12 10:45:33;;;;;;;6.55;1.60;;;21.20;99.90;;;;;;5070222;28;20087;-50
2022/06/12 10:48:02;;;;;;;8.10;1.73;;;21.30;99.90;;;;;;5070140;28;20083;-49
2022/06/12 10:50:47;;;;;;;7.05;1.75;;;21.30;99.90;;;;;;5070119;28;20036;-47
2022/06/12 10:53:18;;;;;;;4.57;1.50;;;21.40;99.90;;;;;;5070111;28;20542;-48
2022/06/12 10:55:50;;;;;;;7.13;1.40;;;21.30;99.90;;;;;;5070308;28;20036;-45
2022/06/12 10:58:44;;;;;;;7.25;1.90;;;21.10;99.90;;;;;;5070056;28;20036;-47
2022/06/12 11:01:37;;;;;;;8.77;1.40;;;21.20;99.80;;;;;;5069727;28;20114;-48
2022/06/12 11:04:05;;;;;;;6.30;1.45;;;21.30;99.90;;;;;;5069959;28;20539;-47
2022/06/12 11:07:08;;;;;;;8.48;1.60;;;21.40;99.90;;;;;;5051323;28;20045;-47
2022/06/12 11:09:59;;;;;;;5.80;1.45;;;21.70;99.90;;;;;;5069942;28;20119;-47
2022/06/12 11:12:41;;;;;;;6.22;1.40;;;21.50;99.90;;;;;;5070197;28;20088;-46
2022/06/12 11:15:14;;;;;;;8.75;1.42;;;21.60;99.70;;;;;;5069721;28;20040;-48
2022/06/12 11:17:46;;;;;;;10.43;1.75;;;21.70;98.90;;;;;;5069797;28;20777;-48
2022/06/12 11:20:34;;;;;;;7.50;1.38;;;21.40;98.40;;;;;;5069811;28;20045;-48
2022/06/12 11:23:09;;;;;;;5.78;1.20;;;21.40;98.70;;;;;;5050496;28;20059;-51
2022/06/12 11:26:12;;;;;;;5.18;1.20;;;21.50;98.60;;;;;;5069527;28;20045;-48
2022/06/12 11:28:43;;;;;;;6.03;1.33;;;21.80;98.70;;;;;;5069612;28;20043;-48
2022/06/12 11:31:39;;;;;;;5.35;1.33;;;21.50;98.40;;;;;;5069820;28;20143;-47
2022/06/12 11:34:38;;;;;;;6.72;1.35;;;21.90;97.60;;;;;;5069685;28;20051;-47
2022/06/12 11:37:19;;;;;;;7.35;1.50;;;22.10;99.50;;;;;;5069419;28;20040;-49
2022/06/12 11:39:56;;;;;;;7.38;1.58;;;22.00;98.50;;;;;;5069503;28;20068;-47
2022/06/12 11:42:51;;;;;;;6.40;1.90;;;22.00;97.90;;;;;;5069474;28;20032;-50
2022/06/12 11:45:50;;;;;;;8.13;1.63;;;22.00;98.20;;;;;;5051452;28;20036;-47
2022/06/12 11:48:35;;;;;;;8.23;1.40;;;21.80;98.70;;;;;;5069720;28;20450;-48
2022/06/12 11:51:22;;;;;;;6.68;1.40;;;22.00;97.20;;;;;;5069540;28;20076;-47
2022/06/12 11:53:54;;;;;;;7.00;1.70;;;22.10;98.10;;;;;;5069779;28;20059;-48
2022/06/12 11:56:47;;;;;;;7.95;1.10;;;22.10;97.70;;;;;;5051642;28;20033;-49
2022/06/12 11:59:50;;;;;;;5.28;1.30;;;21.90;96.80;;;;;;5069456;28;20097;-46
2022/06/12 12:02:41;;;;;;;8.93;1.50;;;21.90;95.80;;;;;;5051247;28;20046;-49
2022/06/12 12:05:34;;;;;;;5.28;1.02;;;21.70;95.70;;;;;;5069487;28;20036;-48
2022/06/12 12:08:24;;;;;;;7.00;1.60;;;21.90;96.90;;;;;;5068981;28;20041;-53
2022/06/12 12:11:11;;;;;;;6.97;1.40;;;21.80;96.30;;;;;;5069270;28;20032;-48
2022/06/12 12:13:44;;;;;;;6.47;1.63;;;22.10;96.90;;;;;;5071870;28;20037;-46
2022/06/12 12:16:24;;;;;;;7.35;1.38;;;22.30;97.10;;;;;;5073119;28;20056;-48
2022/06/12 12:18:56;;;;;;;8.55;1.50;;;22.60;96.90;;;;;;5073057;28;20115;-47
2022/06/12 12:21:34;;;;;;;7.68;1.67;;;22.50;98.50;;;;;;5072866;28;20036;-47
2022/06/12 12:24:01;;;;;;;11.35;1.60;;;22.60;97.20;;;;;;5072819;28;20052;-47
2022/06/12 12:26:41;;;;;;;7.80;1.75;;;22.20;96.90;;;;;;5072573;28;20123;-47
2022/06/12 12:29:15;;;;;;;8.73;1.60;;;22.30;98.20;;;;;;5072918;28;20045;-48
2022/06/12 12:31:41;;;;;;;7.00;1.30;;;22.30;97.30;;;;;;5072744;28;20051;-46
2022/06/12 12:34:08;;;;;;;8.07;1.58;;;22.30;97.10;;;;;;5072787;28;20036;-50
2022/06/12 12:42:19;;;;;;;7.65;1.30;;;22.70;96.50;;;;;;5072078;28;20088;-48
2022/06/12 12:44:46;;;;;;;6.90;1.45;;;22.60;95.50;;;;;;5054560;28;20063;-47
2022/06/12 12:47:27;;;;;;;8.70;1.48;;;22.60;96.20;;;;;;5072485;28;20501;-50
2022/06/12 12:50:13;;;;;;;7.40;1.70;;;22.60;96.40;;;;;;5072136;28;20075;-46
2022/06/12 12:52:44;;;;;;;7.18;1.25;;;22.50;96.10;;;;;;5072366;28;20094;-45
2022/06/12 12:55:35;;;;;;;7.18;1.88;;;22.50;96.40;;;;;;5071950;28;20044;-45
2022/06/12 12:58:13;;;;;;;6.47;1.40;;;22.40;95.60;;;;;;5072529;28;20421;-46
2022/06/12 13:00:39;;;;;;;6.40;1.40;;;22.90;94.90;;;;;;5072260;28;20059;-48
2022/06/12 13:03:29;;;;;;;4.85;1.10;;;22.90;95.70;;;;;;5071744;28;20040;-47
2022/06/12 13:06:06;;;;;;;7.25;1.83;;;22.80;94.80;;;;;;5057559;28;20131;-47
2022/06/12 13:08:48;;;;;;;6.38;1.55;;;23.20;95.80;;;;;;5072127;28;20040;-47
2022/06/12 13:11:25;;;;;;;6.28;1.52;;;23.10;94.50;;;;;;5071900;28;20127;-47
2022/06/12 13:14:06;;;;;;;5.45;1.30;;;23.10;94.30;;;;;;5072042;28;20431;-48
2022/06/12 13:16:47;;;;;;;6.90;1.20;;;23.30;94.00;;;;;;5071691;28;20043;-48
2022/06/12 13:19:22;;;;;;;6.00;1.13;;;23.40;93.70;;;;;;5071151;28;20480;-47
2022/06/12 13:22:00;;;;;;;7.35;1.30;;;23.30;93.90;;;;;;5071526;28;20332;-47
2022/06/12 13:24:36;;;;;;;7.20;1.65;;;23.70;94.20;;;;;;5071507;28;20456;-50
2022/06/12 13:27:18;;;;;;;7.97;1.83;;;23.30;93.30;;;;;;5071281;28;20044;-46
2022/06/12 13:29:44;;;;;;;9.43;1.48;;;23.50;93.20;;;;;;5071530;28;20047;-46
2022/06/12 13:32:19;;;;;;;5.63;1.33;;;23.60;93.20;;;;;;5071375;28;20086;-47
2022/06/12 13:34:54;;;;;;;8.75;1.35;;;24.00;92.70;;;;;;5071440;28;20463;-45
2022/06/12 13:37:20;;;;;;;9.52;1.80;;;24.00;93.00;;;;;;5036304;28;20052;-47